WetterOnline ( https://www.wetteronline.ch )

Wetter aktuell Mühldorf

Aktuelles Wetter: Mühldorf am Inn (410m)

6-stündlich | Neueste Meldungen
Ortszeit Temperatur Wetter
Mo, 23.09. 8:00 13.3° C bewölkt
Mo, 23.09. 2:00 7.0° C fast wolkenlos
So, 22.09. 20:00 15.1° C wolkig
So, 22.09. 14:00 17.7° C bedeckt
So, 22.09. 8:00 5.6° C wolkig
So, 22.09. 2:00 6.7° C wolkenlos
Sa, 21.09. 20:00 15.7° C wolkenlos
Sa, 21.09. 14:00 19.3° C wolkenlos
Ortszeit Temperatur Wetter
Mo, 23.09. 13:30 14.2° C bewölkt
Mo, 23.09. 13:20 14.2° C Sprühregen
Mo, 23.09. 13:10 14.1° C Sprühregen
Mo, 23.09. 13:00 13.9° C Sprühregen
Mo, 23.09. 12:50 13.9° C Sprühregen
Mo, 23.09. 12:40 13.9° C Sprühregen
Mo, 23.09. 12:30 13.9° C Sprühregen
Mo, 23.09. 12:00 13.9° C Sprühregen
Mo, 23.09. 11:30 13.7° C Sprühregen
Mo, 23.09. 11:00 13.9° C Sprühregen
Mo, 23.09. 10:30 13.9° C Sprühregen
Ortszeit Relative Feuchte Sichtweite
Mo, 23.09. 8:00 93% 13 km
Mo, 23.09. 2:00 98% 7 km
So, 22.09. 20:00 77% 30 km
So, 22.09. 14:00 59% 30 km
So, 22.09. 8:00 93% 15 km
So, 22.09. 2:00 94% 30 km
Sa, 21.09. 20:00 55% 28 km
Sa, 21.09. 14:00 39% 30 km
Ortszeit Relative Feuchte Sichtweite
Mo, 23.09. 13:30 90% 40 km
Mo, 23.09. 13:20 90% -
Mo, 23.09. 13:10 92% -
Mo, 23.09. 13:00 92% 23 km
Mo, 23.09. 12:50 92% -
Mo, 23.09. 12:40 91% -
Mo, 23.09. 12:30 92% 24 km
Mo, 23.09. 12:00 92% 30 km
Mo, 23.09. 11:30 96% 9 km
Mo, 23.09. 11:00 95% 30 km
Mo, 23.09. 10:30 96% 6 km
Ortszeit Niederschlagsmenge Niederschlagsart
Mo, 23.09. 8:00 0.0 l/m2 in 12 Std. -
Mo, 23.09. 2:00 0.0 l/m2 in 6 Std. -
So, 22.09. 20:00 0.0 l/m2 in 12 Std. -
So, 22.09. 14:00 0.0 l/m2 in 6 Std. -
So, 22.09. 8:00 0.0 l/m2 in 12 Std. -
So, 22.09. 2:00 0.0 l/m2 in 6 Std. -
Sa, 21.09. 20:00 0.0 l/m2 in 12 Std. -
Sa, 21.09. 14:00 0.0 l/m2 in 6 Std. -
Ortszeit Niederschlagsmenge Niederschlagsart
Mo, 23.09. 13:30 0.1 l/m2 in 1 Std. Schnee
Mo, 23.09. 13:20 keine Meldung -
Mo, 23.09. 13:10 keine Meldung -
Mo, 23.09. 13:00 0.1 l/m2 in 1 Std. Regen
Mo, 23.09. 12:50 keine Meldung -
Mo, 23.09. 12:40 keine Meldung -
Mo, 23.09. 12:30 0.1 l/m2 in 1 Std. -
Mo, 23.09. 12:00 0.4 l/m2 in 1 Std. Regen
Mo, 23.09. 11:30 0.1 l/m2 in 1 Std. -
Mo, 23.09. 11:00 0.3 l/m2 in 1 Std. Regen
Mo, 23.09. 10:30 0.2 l/m2 in 1 Std. -
Ortszeit Stärke Spitze Richtung
km/h Bft. km/h Grad Sektor
Mo, 23.09. 8:00 18 3 29 290° W
Mo, 23.09. 2:00 4 1 7 290° W
So, 22.09. 20:00 4 1 11 90° O
So, 22.09. 14:00 6 1 15 110° O
So, 22.09. 8:00 4 1 7 210° SW
So, 22.09. 2:00 0 0 25 - -
Sa, 21.09. 20:00 9 2 28 90° O
Sa, 21.09. 14:00 7 2 22 120° SO
Ortszeit Stärke Spitze Richtung
km/h Bft. km/h Grad Sektor
Mo, 23.09. 13:30 22 4 33 280° W
Mo, 23.09. 13:20 22 4 - 280° W
Mo, 23.09. 13:10 22 4 - 280° W
Mo, 23.09. 13:00 22 4 36 270° W
Mo, 23.09. 12:50 22 4 - 270° W
Mo, 23.09. 12:40 22 4 - 270° W
Mo, 23.09. 12:30 20 4 30 270° W
Mo, 23.09. 12:00 18 3 32 270° W
Mo, 23.09. 11:30 18 3 25 270° W
Mo, 23.09. 11:00 18 3 32 270° W
Mo, 23.09. 10:30 19 3 31 280° W
Ortszeit Untergrenze Bedeckung Gattung
total tief tief mittel hoch
Mo, 23.09. 8:00 1260 m 8/8 7/8 - - -
Mo, 23.09. 2:00 10500 m 2/8 0/8 - - -
So, 22.09. 20:00 1800 m 7/8 1/8 - - -
So, 22.09. 14:00 3900 m 8/8 8/8 - - -
So, 22.09. 8:00 7200 m 8/8 0/8 - - -
So, 22.09. 2:00 - 0/8 0/8 - - -
Sa, 21.09. 20:00 - 0/8 0/8 - - -
Sa, 21.09. 14:00 - 0/8 0/8 - - -
Ortszeit Bedeckungsgrad in Achtel und Wolkenuntergrenze
Mo, 23.09. 13:30 4(390m) 6(810m) 7(1410m)
Mo, 23.09. 13:20 4(390m) 6(810m) 7(1410m)
Mo, 23.09. 13:10 5(360m) 7(510m) 7(660m)
Mo, 23.09. 13:00 6(360m) 8(540m) 7(660m)
Mo, 23.09. 12:50 6(360m) 8(540m)
Mo, 23.09. 12:40 6(330m) 7(450m)
Mo, 23.09. 12:30 7(360m) 8(510m) 8(600m)
Mo, 23.09. 12:00 4(270m) 7(390m)
Mo, 23.09. 11:30 7(240m) 8(390m)
Mo, 23.09. 11:00 7(240m) 7(330m)
Mo, 23.09. 10:30 5(210m) 7(480m) 8(600m)
Ortszeit Luftdruck NN (hPa) Tendenz (hPa in 3 Std.)
Mo, 23.09. 8:00 1014 + 1,8
Mo, 23.09. 2:00 1013 + 0,2
So, 22.09. 20:00 1011 - 0,1
So, 22.09. 14:00 1012 - 1,4
So, 22.09. 8:00 1016 - 0,2
So, 22.09. 2:00 1017 - 1,1
Sa, 21.09. 20:00 1017 - 1,2
Sa, 21.09. 14:00 1020 - 1,7
Ortszeit Luftdruck NN (hPa) Tendenz (hPa in 3 Std.)
Mo, 23.09. 13:30 1016 + 0,7
Mo, 23.09. 13:20 1016 keine Meldung
Mo, 23.09. 13:10 1016 keine Meldung
Mo, 23.09. 13:00 1016 + 0,8
Mo, 23.09. 12:50 1016 keine Meldung
Mo, 23.09. 12:40 1016 keine Meldung
Mo, 23.09. 12:30 1016 + 1,0
Mo, 23.09. 12:00 1016 + 1,4
Mo, 23.09. 11:30 1016 + 1,8
Mo, 23.09. 11:00 1016 + 1,9
Mo, 23.09. 10:30 1015 + 2,1
Ortszeit Schneehöhe (cm)
Mo, 23.09. 8:00 -
Mo, 23.09. 2:00 -
So, 22.09. 20:00 -
So, 22.09. 14:00 -
So, 22.09. 8:00 -
So, 22.09. 2:00 -
Sa, 21.09. 20:00 -
Sa, 21.09. 14:00 -
Ortszeit Schneehöhe (cm)
Mo, 23.09. 13:30 -
Mo, 23.09. 13:20 -
Mo, 23.09. 13:10 -
Mo, 23.09. 13:00 -
Mo, 23.09. 12:50 -
Mo, 23.09. 12:40 -
Mo, 23.09. 12:30 -
Mo, 23.09. 12:00 -
Mo, 23.09. 11:30 -
Mo, 23.09. 11:00 -
Mo, 23.09. 10:30 -
Link zu dieser Seite / Seite empfehlen

Das Wetter in ...